TAP1478 GGOV-LPPT
Flight info
| Callsign | TAP1478 |
|---|---|
| Flight time | 3h 49m |
| Altitude | 37000 |
| Route | BIS UR620 ARDAR UR975 DIDAN/N0441F380 UR975 ADM UR724 ESS DCT TAKAV DCT VATZI |
| Aircraft | A21N/M-SADE1E2E3FGHIJ1J3J4J7M3P2RWXYZ/LB1D1 |
Departure
| Time | 2026-05-07 18:32 |
|---|---|
| Airport | Osvaldo Vieira International Airport (GGOV) |
Arrival
| Time | 2026-05-07 22:21 |
|---|---|
| Airport | Lisbon Humberto Delgado Airport (LPPT) |
| Time | Latitude | Longitude | Altitude | Speed | Heading |
|---|---|---|---|---|---|
| 2026-05-07 18:17 | 11.88806 | -15.65308 | 138 ft | 0 kts | 205° |
| 2026-05-07 18:22 | 11.88807 | -15.65307 | 138 ft | 2 kts | 205° |
| 2026-05-07 18:22 | 11.88828 | -15.65300 | 138 ft | 4 kts | 163° |
| 2026-05-07 18:23 | 11.88836 | -15.65305 | 138 ft | 4 kts | 154° |
| 2026-05-07 18:23 | 11.88819 | -15.65321 | 138 ft | 4 kts | 33° |
| 2026-05-07 18:23 | 11.88805 | -15.65330 | 138 ft | 4 kts | 325° |
| 2026-05-07 18:23 | 11.88810 | -15.65348 | 138 ft | 4 kts | 288° |
| 2026-05-07 18:24 | 11.88816 | -15.65363 | 138 ft | 4 kts | 291° |
| 2026-05-07 18:24 | 11.88825 | -15.65388 | 138 ft | 4 kts | 290° |
| 2026-05-07 18:24 | 11.88834 | -15.65414 | 138 ft | 4 kts | 287° |
| 2026-05-07 18:24 | 11.88838 | -15.65430 | 138 ft | 0 kts | 285° |
| 2026-05-07 18:27 | 11.88841 | -15.65439 | 138 ft | 3 kts | 285° |
| 2026-05-07 18:27 | 11.88849 | -15.65468 | 138 ft | 6 kts | 287° |
| 2026-05-07 18:27 | 11.88858 | -15.65498 | 138 ft | 8 kts | 287° |
| 2026-05-07 18:28 | 11.88910 | -15.65562 | 137 ft | 12 kts | 1° |
| 2026-05-07 18:28 | 11.88996 | -15.65535 | 136 ft | 14 kts | 17° |
| 2026-05-07 18:28 | 11.89100 | -15.65502 | 135 ft | 17 kts | 18° |
| 2026-05-07 18:28 | 11.89220 | -15.65463 | 134 ft | 19 kts | 19° |
| 2026-05-07 18:29 | 11.89355 | -15.65416 | 133 ft | 22 kts | 19° |
| 2026-05-07 18:29 | 11.89505 | -15.65366 | 131 ft | 24 kts | 18° |
| 2026-05-07 18:29 | 11.89668 | -15.65310 | 128 ft | 26 kts | 18° |
| 2026-05-07 18:29 | 11.89847 | -15.65248 | 120 ft | 28 kts | 19° |
| 2026-05-07 18:30 | 11.90041 | -15.65182 | 118 ft | 30 kts | 18° |
| 2026-05-07 18:30 | 11.90245 | -15.65114 | 116 ft | 32 kts | 18° |
| 2026-05-07 18:30 | 11.90467 | -15.65038 | 114 ft | 35 kts | 19° |
| 2026-05-07 18:30 | 11.90699 | -15.64958 | 111 ft | 36 kts | 19° |
| 2026-05-07 18:31 | 11.90816 | -15.64874 | 108 ft | 16 kts | 33° |
| 2026-05-07 18:31 | 11.90819 | -15.64921 | 107 ft | 7 kts | 194° |
| 2026-05-07 18:31 | 11.90616 | -15.64989 | 112 ft | 67 kts | 198° |
| 2026-05-07 18:31 | 11.89964 | -15.65212 | 121 ft | 129 kts | 198° |
| 2026-05-07 18:32 | 11.88943 | -15.65561 | 175 ft | 174 kts | 199° |
| 2026-05-07 18:32 | 11.87811 | -15.65946 | 788 ft | 171 kts | 201° |
| 2026-05-07 18:32 | 11.86672 | -15.66394 | 1365 ft | 181 kts | 201° |
| 2026-05-07 18:32 | 11.85427 | -15.66863 | 1815 ft | 200 kts | 202° |
| 2026-05-07 18:33 | 11.84268 | -15.67710 | 2315 ft | 214 kts | 232° |
| 2026-05-07 18:33 | 11.83751 | -15.69154 | 2717 ft | 233 kts | 269° |
| 2026-05-07 18:33 | 11.84199 | -15.70767 | 3266 ft | 244 kts | 305° |
| 2026-05-07 18:33 | 11.85525 | -15.71849 | 3961 ft | 249 kts | 339° |
| 2026-05-07 18:34 | 11.87238 | -15.71992 | 4679 ft | 252 kts | 13° |
| 2026-05-07 18:34 | 11.88767 | -15.71133 | 5385 ft | 255 kts | 47° |
| 2026-05-07 18:34 | 11.89696 | -15.69572 | 6014 ft | 263 kts | 65° |
| 2026-05-07 18:34 | 11.90475 | -15.67830 | 6529 ft | 275 kts | 64° |
| 2026-05-07 18:35 | 11.91361 | -15.66076 | 7053 ft | 285 kts | 60° |
| 2026-05-07 18:35 | 11.92567 | -15.64461 | 7705 ft | 288 kts | 38° |
| 2026-05-07 18:35 | 11.94297 | -15.63428 | 8399 ft | 289 kts | 25° |
| 2026-05-07 18:35 | 11.96152 | -15.62592 | 9117 ft | 292 kts | 23° |
| 2026-05-07 18:36 | 11.98012 | -15.61773 | 9786 ft | 295 kts | 23° |
| 2026-05-07 18:36 | 11.99939 | -15.60918 | 10233 ft | 309 kts | 24° |
| 2026-05-07 18:36 | 12.01974 | -15.60006 | 10526 ft | 328 kts | 24° |
| 2026-05-07 18:36 | 12.03388 | -15.59369 | 10700 ft | 340 kts | 24° |
| 2026-05-07 18:37 | 12.06356 | -15.58027 | 11061 ft | 362 kts | 24° |
| 2026-05-07 18:37 | 12.07930 | -15.57314 | 11392 ft | 368 kts | 25° |
| 2026-05-07 18:37 | 12.10286 | -15.56246 | 12032 ft | 372 kts | 25° |
| 2026-05-07 18:37 | 12.12637 | -15.55182 | 12722 ft | 374 kts | 25° |
| 2026-05-07 18:38 | 12.15030 | -15.54099 | 13390 ft | 377 kts | 25° |
| 2026-05-07 18:38 | 12.17441 | -15.53008 | 14021 ft | 381 kts | 24° |
| 2026-05-07 18:38 | 12.19847 | -15.51917 | 14629 ft | 384 kts | 24° |
| 2026-05-07 18:38 | 12.22304 | -15.50806 | 15209 ft | 388 kts | 24° |
| 2026-05-07 18:39 | 12.24793 | -15.49678 | 15759 ft | 392 kts | 24° |
| 2026-05-07 18:39 | 12.27313 | -15.48533 | 16268 ft | 396 kts | 24° |
| 2026-05-07 18:39 | 12.29820 | -15.47394 | 16787 ft | 400 kts | 24° |
| 2026-05-07 18:39 | 12.32386 | -15.46229 | 17308 ft | 404 kts | 24° |
| 2026-05-07 18:40 | 12.34976 | -15.45052 | 17823 ft | 407 kts | 24° |
| 2026-05-07 18:40 | 12.37542 | -15.43886 | 18322 ft | 410 kts | 24° |
| 2026-05-07 18:40 | 12.40160 | -15.42698 | 18804 ft | 413 kts | 24° |
| 2026-05-07 18:40 | 12.42806 | -15.41497 | 19276 ft | 416 kts | 24° |
| 2026-05-07 18:41 | 12.45470 | -15.40289 | 19733 ft | 420 kts | 24° |
| 2026-05-07 18:41 | 12.48156 | -15.39067 | 20187 ft | 423 kts | 24° |
| 2026-05-07 18:41 | 12.50854 | -15.37920 | 20622 ft | 426 kts | 20° |
| 2026-05-07 18:41 | 12.53666 | -15.36892 | 21058 ft | 429 kts | 19° |
| 2026-05-07 18:42 | 12.56497 | -15.35870 | 21469 ft | 432 kts | 19° |
| 2026-05-07 18:42 | 12.59324 | -15.34847 | 21790 ft | 438 kts | 19° |
| 2026-05-07 18:42 | 12.62225 | -15.33796 | 22145 ft | 443 kts | 18° |
| 2026-05-07 18:42 | 12.65157 | -15.32735 | 22527 ft | 446 kts | 18° |
| 2026-05-07 18:43 | 12.68099 | -15.31668 | 22903 ft | 449 kts | 18° |
| 2026-05-07 18:43 | 12.71027 | -15.30606 | 23255 ft | 452 kts | 18° |
| 2026-05-07 18:43 | 12.74007 | -15.29523 | 23617 ft | 455 kts | 18° |
| 2026-05-07 18:43 | 12.77001 | -15.28437 | 23946 ft | 457 kts | 18° |
| 2026-05-07 18:44 | 12.80016 | -15.27343 | 24266 ft | 460 kts | 18° |
| 2026-05-07 18:44 | 12.83014 | -15.26254 | 24569 ft | 462 kts | 18° |
| 2026-05-07 18:44 | 12.86063 | -15.25143 | 24888 ft | 464 kts | 18° |
| 2026-05-07 18:44 | 12.89087 | -15.24044 | 25196 ft | 465 kts | 18° |
| 2026-05-07 18:45 | 12.92155 | -15.22930 | 25494 ft | 468 kts | 18° |
| 2026-05-07 18:45 | 12.95238 | -15.21813 | 25783 ft | 470 kts | 18° |
| 2026-05-07 18:45 | 12.98308 | -15.20698 | 26054 ft | 472 kts | 18° |
| 2026-05-07 18:45 | 13.01420 | -15.19565 | 26351 ft | 474 kts | 18° |
| 2026-05-07 18:46 | 13.04534 | -15.18432 | 26637 ft | 475 kts | 18° |
| 2026-05-07 18:46 | 13.07662 | -15.17293 | 26908 ft | 477 kts | 18° |
| 2026-05-07 18:46 | 13.10808 | -15.16148 | 27173 ft | 479 kts | 18° |
| 2026-05-07 18:46 | 13.13932 | -15.15012 | 27353 ft | 483 kts | 18° |
| 2026-05-07 18:47 | 13.17127 | -15.13848 | 27523 ft | 487 kts | 18° |
| 2026-05-07 18:47 | 13.20345 | -15.12676 | 27762 ft | 490 kts | 18° |
| 2026-05-07 18:47 | 13.23526 | -15.11517 | 28000 ft | 491 kts | 18° |
| 2026-05-07 18:47 | 13.26764 | -15.10337 | 28294 ft | 492 kts | 18° |
| 2026-05-07 18:48 | 13.29960 | -15.09174 | 28606 ft | 491 kts | 18° |
| 2026-05-07 18:48 | 13.33197 | -15.07995 | 28928 ft | 491 kts | 18° |
| 2026-05-07 18:48 | 13.36391 | -15.06830 | 29261 ft | 489 kts | 18° |
| 2026-05-07 18:48 | 13.39613 | -15.05654 | 29569 ft | 489 kts | 18° |
| 2026-05-07 18:49 | 13.42794 | -15.04494 | 29885 ft | 488 kts | 18° |
| 2026-05-07 18:49 | 13.45996 | -15.03326 | 30206 ft | 488 kts | 18° |
| 2026-05-07 18:49 | 13.49216 | -15.02150 | 30535 ft | 487 kts | 18° |
| 2026-05-07 18:49 | 13.52410 | -15.00983 | 30852 ft | 486 kts | 18° |
| 2026-05-07 18:50 | 13.55604 | -14.99817 | 31142 ft | 486 kts | 18° |
| 2026-05-07 18:50 | 13.58767 | -14.98663 | 31440 ft | 485 kts | 18° |
| 2026-05-07 18:50 | 13.61945 | -14.97503 | 31739 ft | 484 kts | 18° |
| 2026-05-07 18:50 | 13.65091 | -14.96353 | 32029 ft | 484 kts | 18° |
| 2026-05-07 18:51 | 13.68267 | -14.95192 | 32294 ft | 484 kts | 18° |
| 2026-05-07 18:51 | 13.71446 | -14.94028 | 32499 ft | 485 kts | 19° |
| 2026-05-07 18:51 | 13.74632 | -14.92863 | 32718 ft | 485 kts | 19° |
| 2026-05-07 18:51 | 13.77813 | -14.91697 | 32988 ft | 485 kts | 19° |
| 2026-05-07 18:52 | 13.80975 | -14.90539 | 33230 ft | 485 kts | 19° |
| 2026-05-07 18:52 | 13.84161 | -14.89372 | 33471 ft | 484 kts | 19° |
| 2026-05-07 18:52 | 13.87312 | -14.88218 | 33711 ft | 484 kts | 19° |
| 2026-05-07 18:52 | 13.90480 | -14.87058 | 33936 ft | 483 kts | 19° |
| 2026-05-07 18:53 | 13.93665 | -14.85890 | 34158 ft | 483 kts | 19° |
| 2026-05-07 18:53 | 13.96801 | -14.84742 | 34379 ft | 482 kts | 19° |
| 2026-05-07 18:53 | 13.99968 | -14.83581 | 34598 ft | 481 kts | 19° |
| 2026-05-07 18:53 | 14.03128 | -14.82422 | 34771 ft | 482 kts | 18° |
| 2026-05-07 18:54 | 14.06314 | -14.81442 | 34806 ft | 481 kts | 13° |
| 2026-05-07 18:54 | 14.12811 | -14.79731 | 34787 ft | 480 kts | 13° |
| 2026-05-07 18:55 | 14.19283 | -14.78031 | 34772 ft | 480 kts | 13° |
| 2026-05-07 18:55 | 14.25753 | -14.76325 | 34770 ft | 481 kts | 13° |
| 2026-05-07 18:56 | 14.32220 | -14.74617 | 34769 ft | 481 kts | 13° |
| 2026-05-07 18:56 | 14.38725 | -14.72897 | 34770 ft | 481 kts | 13° |
| 2026-05-07 18:57 | 14.45184 | -14.71188 | 34770 ft | 481 kts | 13° |
| 2026-05-07 18:57 | 14.51660 | -14.69473 | 34771 ft | 481 kts | 13° |
| 2026-05-07 18:58 | 14.58153 | -14.67754 | 34771 ft | 481 kts | 12° |
| 2026-05-07 18:58 | 14.64625 | -14.66039 | 34770 ft | 481 kts | 12° |
| 2026-05-07 18:59 | 14.71114 | -14.64318 | 34773 ft | 481 kts | 12° |
| 2026-05-07 18:59 | 14.77562 | -14.62607 | 34770 ft | 481 kts | 12° |
| 2026-05-07 19:00 | 14.84081 | -14.60877 | 34770 ft | 481 kts | 12° |
| 2026-05-07 19:00 | 14.90515 | -14.59173 | 34763 ft | 481 kts | 12° |
| 2026-05-07 19:01 | 14.97011 | -14.57447 | 34760 ft | 481 kts | 12° |
| 2026-05-07 19:01 | 15.03470 | -14.55730 | 34758 ft | 480 kts | 12° |
| 2026-05-07 19:02 | 15.09958 | -14.54003 | 34760 ft | 481 kts | 12° |
| 2026-05-07 19:02 | 15.16408 | -14.52287 | 34759 ft | 481 kts | 12° |
| 2026-05-07 19:03 | 15.22904 | -14.50557 | 34760 ft | 481 kts | 12° |
| 2026-05-07 19:03 | 15.29402 | -14.48824 | 34762 ft | 481 kts | 12° |
| 2026-05-07 19:04 | 15.35853 | -14.47105 | 34759 ft | 481 kts | 12° |
| 2026-05-07 19:04 | 15.42363 | -14.45370 | 34761 ft | 481 kts | 12° |
| 2026-05-07 19:05 | 15.48830 | -14.43648 | 34760 ft | 481 kts | 12° |
| 2026-05-07 19:05 | 15.55340 | -14.41907 | 34760 ft | 482 kts | 12° |
| 2026-05-07 19:06 | 15.61795 | -14.40181 | 34761 ft | 481 kts | 12° |
| 2026-05-07 19:06 | 15.71470 | -14.37588 | 34797 ft | 474 kts | 13° |
| 2026-05-07 19:07 | 15.77794 | -14.35901 | 34905 ft | 455 kts | 14° |
| 2026-05-07 19:07 | 15.83831 | -14.34282 | 34981 ft | 449 kts | 14° |
| 2026-05-07 19:08 | 15.89928 | -14.32657 | 34518 ft | 462 kts | 9° |
| 2026-05-07 19:08 | 15.93052 | -14.31907 | 33935 ft | 459 kts | 9° |
| 2026-05-07 19:08 | 15.96134 | -14.31173 | 33855 ft | 448 kts | 10° |
| 2026-05-07 19:09 | 15.99133 | -14.30429 | 34088 ft | 447 kts | 10° |
| 2026-05-07 19:09 | 16.02156 | -14.29676 | 34399 ft | 444 kts | 10° |
| 2026-05-07 19:09 | 16.05160 | -14.28926 | 34651 ft | 444 kts | 10° |
| 2026-05-07 19:09 | 16.08177 | -14.28168 | 34784 ft | 445 kts | 10° |
| 2026-05-07 19:10 | 16.14221 | -14.26625 | 34797 ft | 454 kts | 11° |
| 2026-05-07 19:10 | 16.20489 | -14.25039 | 34556 ft | 471 kts | 10° |
| 2026-05-07 19:11 | 16.26930 | -14.23383 | 34531 ft | 481 kts | 12° |
| 2026-05-07 19:11 | 16.30161 | -14.22463 | 34646 ft | 481 kts | 12° |
| 2026-05-07 19:11 | 16.33363 | -14.21553 | 34761 ft | 483 kts | 12° |
| 2026-05-07 19:12 | 16.39894 | -14.19725 | 34792 ft | 484 kts | 12° |
| 2026-05-07 19:12 | 16.46385 | -14.17905 | 34779 ft | 484 kts | 12° |
| 2026-05-07 19:13 | 16.52915 | -14.16085 | 34778 ft | 484 kts | 12° |
| 2026-05-07 19:13 | 16.59397 | -14.14257 | 34784 ft | 484 kts | 12° |
| 2026-05-07 19:14 | 16.65902 | -14.12422 | 34782 ft | 483 kts | 12° |
| 2026-05-07 19:14 | 16.72359 | -14.10601 | 34790 ft | 484 kts | 12° |
| 2026-05-07 19:15 | 16.78878 | -14.08759 | 35112 ft | 484 kts | 12° |
| 2026-05-07 19:15 | 16.82132 | -14.07839 | 35318 ft | 483 kts | 12° |
| 2026-05-07 19:15 | 16.85377 | -14.06921 | 35491 ft | 483 kts | 12° |
| 2026-05-07 19:16 | 16.88630 | -14.06029 | 35662 ft | 482 kts | 11° |
| 2026-05-07 19:16 | 16.91843 | -14.05166 | 35836 ft | 482 kts | 11° |
| 2026-05-07 19:16 | 16.95092 | -14.04295 | 35996 ft | 482 kts | 11° |
| 2026-05-07 19:16 | 16.98348 | -14.03416 | 36152 ft | 481 kts | 11° |
| 2026-05-07 19:17 | 17.01594 | -14.02537 | 36311 ft | 481 kts | 11° |
| 2026-05-07 19:17 | 17.04842 | -14.01656 | 36432 ft | 481 kts | 11° |
| 2026-05-07 19:17 | 17.08086 | -14.00775 | 36566 ft | 481 kts | 11° |
| 2026-05-07 19:17 | 17.11278 | -13.99908 | 36750 ft | 480 kts | 11° |
| 2026-05-07 19:18 | 17.17713 | -13.98159 | 36815 ft | 474 kts | 11° |
| 2026-05-07 19:18 | 17.24079 | -13.96426 | 36818 ft | 470 kts | 11° |
| 2026-05-07 19:19 | 17.30430 | -13.94698 | 36821 ft | 471 kts | 11° |
| 2026-05-07 19:19 | 17.36739 | -13.92981 | 36828 ft | 471 kts | 10° |
| 2026-05-07 19:20 | 17.43109 | -13.91248 | 36823 ft | 471 kts | 10° |
| 2026-05-07 19:20 | 17.49417 | -13.89524 | 36817 ft | 471 kts | 10° |
| 2026-05-07 19:21 | 17.55781 | -13.87785 | 36814 ft | 471 kts | 10° |
| 2026-05-07 19:21 | 17.62146 | -13.86047 | 36832 ft | 471 kts | 10° |
| 2026-05-07 19:22 | 17.68465 | -13.84321 | 36836 ft | 470 kts | 10° |
| 2026-05-07 19:22 | 17.74801 | -13.82585 | 36827 ft | 470 kts | 10° |
| 2026-05-07 19:23 | 17.81127 | -13.80851 | 36828 ft | 471 kts | 10° |
| 2026-05-07 19:23 | 17.87507 | -13.79103 | 36829 ft | 470 kts | 10° |
| 2026-05-07 19:24 | 17.93846 | -13.77379 | 36827 ft | 470 kts | 10° |
| 2026-05-07 19:24 | 17.99118 | -13.75947 | 36834 ft | 471 kts | 10° |
| 2026-05-07 19:25 | 18.06521 | -13.73938 | 36828 ft | 471 kts | 10° |
| 2026-05-07 19:25 | 18.11813 | -13.72498 | 36834 ft | 472 kts | 10° |
| 2026-05-07 19:26 | 18.18150 | -13.70773 | 36834 ft | 471 kts | 10° |
| 2026-05-07 19:26 | 18.24524 | -13.69035 | 36827 ft | 471 kts | 10° |
| 2026-05-07 19:27 | 18.30865 | -13.67304 | 36827 ft | 472 kts | 10° |
| 2026-05-07 19:27 | 18.37227 | -13.65567 | 36833 ft | 472 kts | 10° |
| 2026-05-07 19:28 | 18.43572 | -13.63833 | 36834 ft | 473 kts | 10° |
| 2026-05-07 19:28 | 18.49922 | -13.62097 | 36827 ft | 473 kts | 10° |
| 2026-05-07 19:29 | 18.56312 | -13.60352 | 36832 ft | 473 kts | 10° |
| 2026-05-07 19:29 | 18.62671 | -13.58609 | 36830 ft | 473 kts | 10° |
| 2026-05-07 19:30 | 18.69082 | -13.56849 | 36856 ft | 473 kts | 10° |
| 2026-05-07 19:30 | 18.75476 | -13.55096 | 36865 ft | 474 kts | 10° |
| 2026-05-07 19:31 | 18.81828 | -13.53353 | 36871 ft | 474 kts | 10° |
| 2026-05-07 19:31 | 18.88204 | -13.51604 | 36869 ft | 474 kts | 10° |
| 2026-05-07 19:32 | 18.94605 | -13.49845 | 36870 ft | 475 kts | 10° |
| 2026-05-07 19:32 | 19.00986 | -13.48088 | 36872 ft | 475 kts | 10° |
| 2026-05-07 19:33 | 19.07408 | -13.46320 | 36870 ft | 475 kts | 10° |
| 2026-05-07 19:33 | 19.13801 | -13.44556 | 36869 ft | 476 kts | 10° |
| 2026-05-07 19:34 | 19.20223 | -13.42785 | 36870 ft | 476 kts | 10° |
| 2026-05-07 19:34 | 19.26616 | -13.41018 | 36869 ft | 476 kts | 10° |
| 2026-05-07 19:35 | 19.33019 | -13.39250 | 36870 ft | 476 kts | 10° |
| 2026-05-07 19:35 | 19.39454 | -13.37473 | 36872 ft | 476 kts | 10° |
| 2026-05-07 19:36 | 19.45884 | -13.35695 | 36877 ft | 478 kts | 10° |
| 2026-05-07 19:36 | 19.52294 | -13.33920 | 36878 ft | 478 kts | 10° |
| 2026-05-07 19:37 | 19.58708 | -13.32143 | 36881 ft | 477 kts | 10° |
| 2026-05-07 19:37 | 19.65173 | -13.30352 | 36881 ft | 478 kts | 10° |
| 2026-05-07 19:38 | 19.71555 | -13.28582 | 36880 ft | 477 kts | 10° |
| 2026-05-07 19:38 | 19.78012 | -13.26787 | 36881 ft | 478 kts | 10° |
| 2026-05-07 19:39 | 19.84428 | -13.25001 | 36880 ft | 477 kts | 10° |
| 2026-05-07 19:39 | 19.90833 | -13.23220 | 36880 ft | 477 kts | 10° |
| 2026-05-07 19:40 | 19.97280 | -13.21428 | 36878 ft | 477 kts | 10° |
| 2026-05-07 19:40 | 20.03691 | -13.19641 | 36881 ft | 477 kts | 10° |
| 2026-05-07 19:41 | 20.10129 | -13.17844 | 36888 ft | 477 kts | 10° |
| 2026-05-07 19:41 | 20.16528 | -13.16057 | 36881 ft | 478 kts | 10° |
| 2026-05-07 19:42 | 20.22972 | -13.14255 | 36878 ft | 477 kts | 10° |
| 2026-05-07 19:42 | 20.29383 | -13.12462 | 36885 ft | 477 kts | 10° |
| 2026-05-07 19:43 | 20.35825 | -13.10658 | 36884 ft | 477 kts | 10° |
| 2026-05-07 19:43 | 20.42219 | -13.08866 | 36882 ft | 477 kts | 10° |
| 2026-05-07 19:44 | 20.48647 | -13.07067 | 36881 ft | 477 kts | 10° |
| 2026-05-07 19:44 | 20.55066 | -13.05325 | 36879 ft | 476 kts | 9° |
| 2026-05-07 19:45 | 20.61473 | -13.03652 | 36878 ft | 475 kts | 9° |
| 2026-05-07 19:45 | 20.67908 | -13.01952 | 36879 ft | 475 kts | 9° |
| 2026-05-07 19:46 | 20.74300 | -13.00261 | 36881 ft | 475 kts | 9° |
| 2026-05-07 19:46 | 20.80730 | -12.98559 | 36879 ft | 475 kts | 9° |
| 2026-05-07 19:47 | 20.87124 | -12.96870 | 36880 ft | 475 kts | 9° |
| 2026-05-07 19:47 | 20.93559 | -12.95159 | 36888 ft | 474 kts | 9° |
| 2026-05-07 19:48 | 20.99981 | -12.93459 | 36890 ft | 474 kts | 9° |
| 2026-05-07 19:48 | 21.06372 | -12.91762 | 36902 ft | 475 kts | 9° |
| 2026-05-07 19:49 | 21.12762 | -12.90065 | 36911 ft | 474 kts | 9° |
| 2026-05-07 19:49 | 21.19189 | -12.88354 | 36921 ft | 474 kts | 9° |
| 2026-05-07 19:50 | 21.25567 | -12.86655 | 36915 ft | 474 kts | 9° |
| 2026-05-07 19:50 | 21.31941 | -12.84956 | 36923 ft | 473 kts | 9° |
| 2026-05-07 19:51 | 21.38369 | -12.83237 | 36924 ft | 473 kts | 9° |
| 2026-05-07 19:51 | 21.44734 | -12.81539 | 36912 ft | 473 kts | 9° |
| 2026-05-07 19:52 | 21.51138 | -12.79830 | 36916 ft | 473 kts | 9° |
| 2026-05-07 19:52 | 21.57491 | -12.78128 | 36930 ft | 474 kts | 9° |
| 2026-05-07 19:53 | 21.63899 | -12.76416 | 36931 ft | 473 kts | 9° |
| 2026-05-07 19:53 | 21.70299 | -12.74697 | 36930 ft | 472 kts | 9° |
| 2026-05-07 19:54 | 21.76683 | -12.72986 | 36930 ft | 472 kts | 9° |
| 2026-05-07 19:54 | 21.83081 | -12.71268 | 36932 ft | 473 kts | 9° |
| 2026-05-07 19:55 | 21.89469 | -12.69551 | 36929 ft | 473 kts | 9° |
| 2026-05-07 19:55 | 21.95824 | -12.67843 | 36933 ft | 473 kts | 9° |
| 2026-05-07 19:56 | 22.02229 | -12.66118 | 36932 ft | 472 kts | 9° |
| 2026-05-07 19:56 | 22.08569 | -12.64407 | 36930 ft | 471 kts | 9° |
| 2026-05-07 19:57 | 22.14900 | -12.62700 | 36930 ft | 470 kts | 9° |
| 2026-05-07 19:57 | 22.21259 | -12.60983 | 36930 ft | 470 kts | 9° |
| 2026-05-07 19:58 | 22.26539 | -12.59553 | 36932 ft | 471 kts | 9° |
| 2026-05-07 19:58 | 22.33936 | -12.57551 | 36932 ft | 470 kts | 9° |
| 2026-05-07 19:59 | 22.40279 | -12.55835 | 36932 ft | 469 kts | 9° |
| 2026-05-07 19:59 | 22.46543 | -12.54135 | 36930 ft | 464 kts | 10° |
| 2026-05-07 20:00 | 22.52827 | -12.52435 | 36929 ft | 464 kts | 9° |
| 2026-05-07 20:00 | 22.53849 | -12.52159 | 36930 ft | 464 kts | 9° |
| 2026-05-07 20:01 | 22.65402 | -12.49020 | 36930 ft | 464 kts | 10° |
| 2026-05-07 20:01 | 22.71684 | -12.47313 | 36923 ft | 467 kts | 9° |
| 2026-05-07 20:02 | 22.77989 | -12.45411 | 36933 ft | 469 kts | 14° |
| 2026-05-07 20:02 | 22.84158 | -12.43165 | 36929 ft | 469 kts | 14° |
| 2026-05-07 20:03 | 22.90341 | -12.40905 | 36931 ft | 468 kts | 14° |
| 2026-05-07 20:03 | 22.96532 | -12.38650 | 36930 ft | 468 kts | 14° |
| 2026-05-07 20:04 | 23.02677 | -12.36411 | 36931 ft | 468 kts | 14° |
| 2026-05-07 20:04 | 23.08832 | -12.34163 | 36932 ft | 469 kts | 14° |
| 2026-05-07 20:05 | 23.14969 | -12.31917 | 36929 ft | 466 kts | 15° |
| 2026-05-07 20:05 | 23.21117 | -12.29664 | 36929 ft | 465 kts | 15° |
| 2026-05-07 20:06 | 23.27232 | -12.27428 | 36932 ft | 465 kts | 15° |
| 2026-05-07 20:06 | 23.33334 | -12.25186 | 36932 ft | 462 kts | 15° |
| 2026-05-07 20:07 | 23.39426 | -12.22955 | 36931 ft | 462 kts | 15° |
| 2026-05-07 20:07 | 23.45538 | -12.20708 | 36930 ft | 462 kts | 15° |
| 2026-05-07 20:08 | 23.51601 | -12.18473 | 36931 ft | 461 kts | 15° |
| 2026-05-07 20:08 | 23.57699 | -12.16233 | 36934 ft | 461 kts | 15° |
| 2026-05-07 20:09 | 23.63780 | -12.13979 | 36949 ft | 461 kts | 15° |
| 2026-05-07 20:10 | 23.71840 | -12.10989 | 36950 ft | 460 kts | 15° |
| 2026-05-07 20:10 | 23.77902 | -12.08775 | 36951 ft | 459 kts | 15° |
| 2026-05-07 20:11 | 23.83938 | -12.06539 | 36960 ft | 460 kts | 15° |
| 2026-05-07 20:11 | 23.89998 | -12.04287 | 36960 ft | 460 kts | 15° |
| 2026-05-07 20:12 | 23.96045 | -12.02016 | 36969 ft | 460 kts | 15° |
| 2026-05-07 20:12 | 24.02113 | -11.99791 | 36969 ft | 459 kts | 15° |
| 2026-05-07 20:13 | 24.08134 | -11.97543 | 36970 ft | 459 kts | 16° |
| 2026-05-07 20:13 | 24.14188 | -11.95268 | 36970 ft | 459 kts | 15° |
| 2026-05-07 20:14 | 24.20214 | -11.93017 | 36980 ft | 459 kts | 15° |
| 2026-05-07 20:14 | 24.26274 | -11.90772 | 36979 ft | 459 kts | 15° |
| 2026-05-07 20:15 | 24.32343 | -11.88518 | 36980 ft | 459 kts | 15° |
| 2026-05-07 20:15 | 24.38369 | -11.86296 | 36979 ft | 458 kts | 15° |
| 2026-05-07 20:16 | 24.44396 | -11.84057 | 36980 ft | 458 kts | 15° |
| 2026-05-07 20:16 | 24.50449 | -11.81798 | 36984 ft | 458 kts | 15° |
| 2026-05-07 20:17 | 24.56461 | -11.79553 | 36981 ft | 458 kts | 16° |
| 2026-05-07 20:17 | 24.62505 | -11.77264 | 36980 ft | 458 kts | 15° |
| 2026-05-07 20:18 | 24.68491 | -11.75001 | 36980 ft | 457 kts | 15° |
| 2026-05-07 20:18 | 24.74518 | -11.72736 | 36979 ft | 457 kts | 15° |
| 2026-05-07 20:19 | 24.80520 | -11.70485 | 36980 ft | 457 kts | 15° |
| 2026-05-07 20:19 | 24.86545 | -11.68249 | 36980 ft | 456 kts | 15° |
| 2026-05-07 20:20 | 24.92566 | -11.65991 | 36981 ft | 456 kts | 15° |
| 2026-05-07 20:20 | 24.98544 | -11.63743 | 36980 ft | 455 kts | 15° |
| 2026-05-07 20:21 | 25.04547 | -11.61478 | 36979 ft | 455 kts | 16° |
| 2026-05-07 20:21 | 25.10543 | -11.59202 | 36978 ft | 454 kts | 15° |
| 2026-05-07 20:22 | 25.16494 | -11.56947 | 36980 ft | 454 kts | 15° |
| 2026-05-07 20:22 | 25.22478 | -11.54677 | 36980 ft | 455 kts | 17° |
| 2026-05-07 20:23 | 25.28372 | -11.52250 | 36980 ft | 454 kts | 17° |
| 2026-05-07 20:23 | 25.34303 | -11.49801 | 36980 ft | 453 kts | 17° |
| 2026-05-07 20:24 | 25.40189 | -11.47371 | 36983 ft | 453 kts | 17° |
| 2026-05-07 20:24 | 25.46092 | -11.44894 | 36983 ft | 452 kts | 17° |
| 2026-05-07 20:25 | 25.51976 | -11.42456 | 36980 ft | 453 kts | 17° |
| 2026-05-07 20:25 | 25.57876 | -11.40011 | 36981 ft | 452 kts | 17° |
| 2026-05-07 20:26 | 25.63779 | -11.37576 | 36978 ft | 452 kts | 17° |
| 2026-05-07 20:26 | 25.69659 | -11.35143 | 36977 ft | 452 kts | 17° |
| 2026-05-07 20:27 | 25.75571 | -11.32697 | 36979 ft | 452 kts | 17° |
| 2026-05-07 20:27 | 25.81433 | -11.30231 | 36984 ft | 452 kts | 17° |
| 2026-05-07 20:28 | 25.87335 | -11.27788 | 36980 ft | 452 kts | 17° |
| 2026-05-07 20:28 | 25.93224 | -11.25319 | 36979 ft | 452 kts | 17° |
| 2026-05-07 20:29 | 25.99129 | -11.22846 | 36978 ft | 452 kts | 17° |
| 2026-05-07 20:29 | 26.04980 | -11.20398 | 36982 ft | 450 kts | 17° |
| 2026-05-07 20:30 | 26.10849 | -11.17959 | 36982 ft | 450 kts | 17° |
| 2026-05-07 20:30 | 26.16717 | -11.15503 | 36980 ft | 450 kts | 17° |
| 2026-05-07 20:31 | 26.22565 | -11.13030 | 36975 ft | 450 kts | 17° |
| 2026-05-07 20:31 | 26.28392 | -11.10587 | 36971 ft | 450 kts | 17° |
| 2026-05-07 20:32 | 26.34256 | -11.08122 | 36972 ft | 449 kts | 17° |
| 2026-05-07 20:32 | 26.40122 | -11.05646 | 36971 ft | 450 kts | 17° |
| 2026-05-07 20:33 | 26.45955 | -11.03155 | 36970 ft | 450 kts | 18° |
| 2026-05-07 20:33 | 26.51779 | -11.00642 | 36971 ft | 450 kts | 18° |
| 2026-05-07 20:34 | 26.57606 | -10.98132 | 36971 ft | 450 kts | 17° |
| 2026-05-07 20:34 | 26.63491 | -10.95677 | 36971 ft | 449 kts | 16° |
| 2026-05-07 20:35 | 26.69332 | -10.93274 | 36971 ft | 450 kts | 17° |
| 2026-05-07 20:35 | 26.75202 | -10.90801 | 36969 ft | 449 kts | 17° |
| 2026-05-07 20:36 | 26.81022 | -10.88308 | 36969 ft | 450 kts | 18° |
| 2026-05-07 20:36 | 26.86874 | -10.85797 | 36970 ft | 449 kts | 17° |
| 2026-05-07 20:37 | 26.92684 | -10.83330 | 36970 ft | 449 kts | 17° |
| 2026-05-07 20:37 | 26.98536 | -10.80841 | 36970 ft | 449 kts | 17° |
| 2026-05-07 20:38 | 27.04395 | -10.78360 | 36972 ft | 449 kts | 17° |
| 2026-05-07 20:38 | 27.10204 | -10.75902 | 36970 ft | 448 kts | 17° |
| 2026-05-07 20:39 | 27.16049 | -10.73409 | 36970 ft | 448 kts | 17° |
| 2026-05-07 20:39 | 27.21882 | -10.70919 | 36973 ft | 448 kts | 18° |
| 2026-05-07 20:40 | 27.27673 | -10.68436 | 36969 ft | 448 kts | 17° |
| 2026-05-07 20:40 | 27.33515 | -10.65951 | 36970 ft | 447 kts | 17° |
| 2026-05-07 20:41 | 27.39302 | -10.63453 | 36970 ft | 447 kts | 18° |
| 2026-05-07 20:41 | 27.45128 | -10.60931 | 36970 ft | 446 kts | 17° |
| 2026-05-07 20:42 | 27.50923 | -10.58467 | 36969 ft | 446 kts | 17° |
| 2026-05-07 20:42 | 27.56746 | -10.55967 | 36970 ft | 446 kts | 17° |
| 2026-05-07 20:43 | 27.62522 | -10.53477 | 36970 ft | 446 kts | 17° |
| 2026-05-07 20:43 | 27.68330 | -10.50989 | 36970 ft | 445 kts | 17° |
| 2026-05-07 20:44 | 27.74154 | -10.48547 | 36959 ft | 445 kts | 17° |
| 2026-05-07 20:44 | 27.79948 | -10.46157 | 36950 ft | 444 kts | 17° |
| 2026-05-07 20:45 | 27.85728 | -10.43748 | 36950 ft | 445 kts | 17° |
| 2026-05-07 20:45 | 27.91555 | -10.41331 | 36952 ft | 445 kts | 17° |
| 2026-05-07 20:46 | 27.97333 | -10.38925 | 36960 ft | 444 kts | 17° |
| 2026-05-07 20:46 | 28.03141 | -10.36491 | 36960 ft | 444 kts | 17° |
| 2026-05-07 20:47 | 28.08948 | -10.34057 | 36960 ft | 444 kts | 17° |
| 2026-05-07 20:47 | 28.14709 | -10.31652 | 36961 ft | 444 kts | 17° |
| 2026-05-07 20:48 | 28.20520 | -10.29221 | 36959 ft | 444 kts | 17° |
| 2026-05-07 20:48 | 28.26291 | -10.26794 | 36960 ft | 444 kts | 17° |
| 2026-05-07 20:49 | 28.32111 | -10.24354 | 36961 ft | 444 kts | 17° |
| 2026-05-07 20:49 | 28.37914 | -10.21909 | 36960 ft | 444 kts | 17° |
| 2026-05-07 20:50 | 28.43689 | -10.19467 | 36959 ft | 445 kts | 17° |
| 2026-05-07 20:50 | 28.49494 | -10.17022 | 36962 ft | 444 kts | 17° |
| 2026-05-07 20:51 | 28.55270 | -10.14588 | 36962 ft | 445 kts | 17° |
| 2026-05-07 20:51 | 28.61089 | -10.12135 | 36958 ft | 444 kts | 17° |
| 2026-05-07 20:52 | 28.66874 | -10.09687 | 36961 ft | 445 kts | 17° |
| 2026-05-07 20:52 | 28.72691 | -10.07215 | 36962 ft | 445 kts | 17° |
| 2026-05-07 20:53 | 28.78502 | -10.04746 | 36961 ft | 445 kts | 17° |
| 2026-05-07 20:53 | 28.84300 | -10.02285 | 36958 ft | 445 kts | 17° |
| 2026-05-07 20:54 | 28.90126 | -9.99813 | 36958 ft | 446 kts | 17° |
| 2026-05-07 20:54 | 28.95920 | -9.97352 | 36960 ft | 446 kts | 17° |
| 2026-05-07 20:55 | 29.01748 | -9.94859 | 36960 ft | 447 kts | 17° |
| 2026-05-07 20:55 | 29.07569 | -9.92367 | 36957 ft | 447 kts | 17° |
| 2026-05-07 20:56 | 29.12407 | -9.90292 | 36959 ft | 447 kts | 17° |
| 2026-05-07 20:56 | 29.18227 | -9.87785 | 36961 ft | 446 kts | 17° |
| 2026-05-07 20:57 | 29.24033 | -9.85295 | 36961 ft | 447 kts | 17° |
| 2026-05-07 20:57 | 29.29872 | -9.82780 | 36960 ft | 447 kts | 17° |
| 2026-05-07 20:58 | 29.35703 | -9.80256 | 36957 ft | 447 kts | 17° |
| 2026-05-07 20:58 | 29.41541 | -9.77743 | 36950 ft | 447 kts | 17° |
| 2026-05-07 20:59 | 29.47350 | -9.75230 | 36950 ft | 448 kts | 17° |
| 2026-05-07 20:59 | 29.53160 | -9.72709 | 36952 ft | 448 kts | 17° |
| 2026-05-07 21:00 | 29.59011 | -9.70184 | 36939 ft | 448 kts | 17° |
| 2026-05-07 21:00 | 29.64833 | -9.67664 | 36942 ft | 448 kts | 17° |
| 2026-05-07 21:01 | 29.70644 | -9.65141 | 36931 ft | 447 kts | 17° |
| 2026-05-07 21:01 | 29.76491 | -9.62597 | 36931 ft | 448 kts | 17° |
| 2026-05-07 21:02 | 29.82287 | -9.60068 | 36918 ft | 447 kts | 17° |
| 2026-05-07 21:02 | 29.88133 | -9.57515 | 36912 ft | 450 kts | 17° |
| 2026-05-07 21:03 | 29.94038 | -9.54935 | 36919 ft | 457 kts | 16° |
| 2026-05-07 21:03 | 29.99963 | -9.52348 | 36904 ft | 457 kts | 16° |
| 2026-05-07 21:04 | 30.05921 | -9.49763 | 36911 ft | 457 kts | 15° |
| 2026-05-07 21:04 | 30.11880 | -9.47205 | 36911 ft | 458 kts | 16° |
| 2026-05-07 21:05 | 30.17840 | -9.44603 | 36909 ft | 458 kts | 16° |
| 2026-05-07 21:05 | 30.23814 | -9.41989 | 36909 ft | 458 kts | 15° |
| 2026-05-07 21:06 | 30.29829 | -9.39656 | 36910 ft | 452 kts | 7° |
| 2026-05-07 21:06 | 30.32886 | -9.39209 | 36910 ft | 445 kts | 356° |
| 2026-05-07 21:06 | 30.35952 | -9.39412 | 36902 ft | 437 kts | 346° |
| 2026-05-07 21:07 | 30.41855 | -9.41018 | 37179 ft | 434 kts | 340° |
| 2026-05-07 21:07 | 30.44777 | -9.41881 | 37383 ft | 433 kts | 341° |
| 2026-05-07 21:07 | 30.47700 | -9.42719 | 37557 ft | 433 kts | 341° |
| 2026-05-07 21:07 | 30.50631 | -9.43548 | 37698 ft | 434 kts | 341° |
| 2026-05-07 21:08 | 30.53568 | -9.44363 | 37842 ft | 434 kts | 341° |
| 2026-05-07 21:08 | 30.59456 | -9.46011 | 37942 ft | 434 kts | 341° |
| 2026-05-07 21:09 | 30.65326 | -9.47650 | 37918 ft | 434 kts | 341° |
| 2026-05-07 21:09 | 30.66274 | -9.47914 | 37919 ft | 434 kts | 341° |
| 2026-05-07 21:10 | 30.66287 | -9.47918 | 37918 ft | 434 kts | 341° |
| 2026-05-07 21:10 | 30.72213 | -9.49525 | 37940 ft | 435 kts | 341° |
| 2026-05-07 21:11 | 30.78088 | -9.51175 | 37949 ft | 434 kts | 341° |
| 2026-05-07 21:11 | 30.86905 | -9.53711 | 37959 ft | 435 kts | 340° |
| 2026-05-07 21:12 | 30.92770 | -9.55393 | 37958 ft | 435 kts | 341° |
| 2026-05-07 21:12 | 30.98617 | -9.57088 | 37960 ft | 435 kts | 340° |
| 2026-05-07 21:13 | 31.04481 | -9.58815 | 37975 ft | 436 kts | 341° |
| 2026-05-07 21:13 | 31.10377 | -9.60423 | 37979 ft | 438 kts | 341° |
| 2026-05-07 21:14 | 31.16325 | -9.62053 | 37963 ft | 437 kts | 341° |
| 2026-05-07 21:14 | 31.22262 | -9.63710 | 37976 ft | 438 kts | 341° |
| 2026-05-07 21:15 | 31.28166 | -9.65358 | 37984 ft | 438 kts | 341° |
| 2026-05-07 21:15 | 31.34104 | -9.67030 | 37988 ft | 439 kts | 341° |
| 2026-05-07 21:16 | 31.40098 | -9.68464 | 37984 ft | 445 kts | 349° |
| 2026-05-07 21:16 | 31.46360 | -9.68339 | 37992 ft | 453 kts | 358° |
| 2026-05-07 21:17 | 31.52622 | -9.67893 | 37990 ft | 452 kts | 358° |
| 2026-05-07 21:17 | 31.58919 | -9.67470 | 37988 ft | 454 kts | 358° |
| 2026-05-07 21:18 | 31.65238 | -9.67059 | 37990 ft | 454 kts | 358° |
| 2026-05-07 21:18 | 31.71570 | -9.66642 | 37987 ft | 454 kts | 358° |
| 2026-05-07 21:19 | 31.77881 | -9.66227 | 37984 ft | 454 kts | 358° |
| 2026-05-07 21:19 | 31.84168 | -9.65809 | 37988 ft | 455 kts | 358° |
| 2026-05-07 21:20 | 31.90497 | -9.65390 | 37989 ft | 455 kts | 357° |
| 2026-05-07 21:20 | 31.96830 | -9.64969 | 37989 ft | 455 kts | 357° |
| 2026-05-07 21:21 | 32.03119 | -9.64550 | 37986 ft | 455 kts | 357° |
| 2026-05-07 21:21 | 32.09469 | -9.64131 | 37983 ft | 456 kts | 358° |
| 2026-05-07 21:22 | 32.15813 | -9.63707 | 37977 ft | 456 kts | 358° |
| 2026-05-07 21:22 | 32.22119 | -9.63288 | 37978 ft | 455 kts | 358° |
| 2026-05-07 21:23 | 32.28452 | -9.62868 | 37978 ft | 456 kts | 358° |
| 2026-05-07 21:23 | 32.34801 | -9.62442 | 37979 ft | 456 kts | 358° |
| 2026-05-07 21:24 | 32.41114 | -9.62019 | 37978 ft | 456 kts | 358° |
| 2026-05-07 21:24 | 32.47465 | -9.61594 | 37979 ft | 456 kts | 358° |
| 2026-05-07 21:25 | 32.53806 | -9.61169 | 37979 ft | 456 kts | 358° |
| 2026-05-07 21:25 | 32.60125 | -9.60743 | 37957 ft | 456 kts | 358° |
| 2026-05-07 21:26 | 32.66444 | -9.60321 | 37961 ft | 456 kts | 358° |
| 2026-05-07 21:26 | 32.72791 | -9.59893 | 37958 ft | 456 kts | 358° |
| 2026-05-07 21:27 | 32.79159 | -9.59463 | 37967 ft | 457 kts | 358° |
| 2026-05-07 21:27 | 32.85501 | -9.59036 | 37956 ft | 457 kts | 358° |
| 2026-05-07 21:28 | 32.91875 | -9.58604 | 37963 ft | 457 kts | 358° |
| 2026-05-07 21:28 | 32.98204 | -9.58176 | 37962 ft | 458 kts | 358° |
| 2026-05-07 21:29 | 33.04583 | -9.57743 | 37962 ft | 458 kts | 358° |
| 2026-05-07 21:29 | 33.10967 | -9.57310 | 37968 ft | 459 kts | 358° |
| 2026-05-07 21:30 | 33.17325 | -9.56877 | 37966 ft | 459 kts | 358° |
| 2026-05-07 21:30 | 33.23726 | -9.56438 | 37972 ft | 460 kts | 358° |
| 2026-05-07 21:31 | 33.30097 | -9.56006 | 37961 ft | 461 kts | 358° |
| 2026-05-07 21:31 | 33.36510 | -9.55567 | 37971 ft | 461 kts | 358° |
| 2026-05-07 21:32 | 33.42932 | -9.55130 | 37962 ft | 462 kts | 358° |
| 2026-05-07 21:32 | 33.49312 | -9.54690 | 37963 ft | 462 kts | 358° |
| 2026-05-07 21:33 | 33.55739 | -9.54250 | 37964 ft | 463 kts | 358° |
| 2026-05-07 21:33 | 33.62171 | -9.53805 | 37964 ft | 462 kts | 358° |
| 2026-05-07 21:34 | 33.68593 | -9.53365 | 37969 ft | 464 kts | 358° |
| 2026-05-07 21:34 | 33.75016 | -9.52924 | 37961 ft | 463 kts | 358° |
| 2026-05-07 21:35 | 33.81479 | -9.52476 | 37967 ft | 464 kts | 358° |
| 2026-05-07 21:35 | 33.87898 | -9.52031 | 37962 ft | 465 kts | 358° |
| 2026-05-07 21:36 | 33.94379 | -9.51584 | 37962 ft | 464 kts | 358° |
| 2026-05-07 21:36 | 34.00818 | -9.51137 | 37961 ft | 464 kts | 358° |
| 2026-05-07 21:37 | 34.07266 | -9.50683 | 37955 ft | 465 kts | 359° |
| 2026-05-07 21:37 | 34.13753 | -9.50230 | 37961 ft | 465 kts | 358° |
| 2026-05-07 21:38 | 34.20182 | -9.49791 | 37957 ft | 465 kts | 358° |
| 2026-05-07 21:38 | 34.26649 | -9.49339 | 37951 ft | 465 kts | 358° |
| 2026-05-07 21:39 | 34.33113 | -9.48886 | 37959 ft | 465 kts | 358° |
| 2026-05-07 21:39 | 34.39572 | -9.48428 | 37950 ft | 465 kts | 358° |
| 2026-05-07 21:40 | 34.46041 | -9.47965 | 37958 ft | 465 kts | 359° |
| 2026-05-07 21:40 | 34.52494 | -9.47482 | 37952 ft | 464 kts | 359° |
| 2026-05-07 21:41 | 34.58914 | -9.47039 | 37957 ft | 464 kts | 358° |
| 2026-05-07 21:41 | 34.65367 | -9.46618 | 37966 ft | 464 kts | 359° |
| 2026-05-07 21:42 | 34.71827 | -9.46152 | 37954 ft | 464 kts | 359° |
| 2026-05-07 21:42 | 34.77197 | -9.45769 | 37957 ft | 463 kts | 359° |
| 2026-05-07 21:43 | 34.83647 | -9.45309 | 37970 ft | 463 kts | 358° |
| 2026-05-07 21:43 | 34.90068 | -9.44867 | 37955 ft | 465 kts | 359° |
| 2026-05-07 21:44 | 34.96532 | -9.44417 | 37953 ft | 464 kts | 359° |
| 2026-05-07 21:44 | 35.02987 | -9.43958 | 37951 ft | 464 kts | 359° |
| 2026-05-07 21:45 | 35.09415 | -9.43498 | 37963 ft | 465 kts | 359° |
| 2026-05-07 21:45 | 35.15883 | -9.43037 | 37961 ft | 464 kts | 359° |
| 2026-05-07 21:46 | 35.22357 | -9.42576 | 37962 ft | 465 kts | 359° |
| 2026-05-07 21:46 | 35.28771 | -9.42118 | 37949 ft | 465 kts | 359° |
| 2026-05-07 21:47 | 35.35233 | -9.41656 | 37952 ft | 465 kts | 359° |
| 2026-05-07 21:47 | 35.41699 | -9.41192 | 37954 ft | 465 kts | 359° |
| 2026-05-07 21:48 | 35.48171 | -9.40727 | 37942 ft | 466 kts | 359° |
| 2026-05-07 21:48 | 35.54642 | -9.40261 | 37943 ft | 465 kts | 359° |
| 2026-05-07 21:49 | 35.61112 | -9.39794 | 37946 ft | 466 kts | 359° |
| 2026-05-07 21:49 | 35.67587 | -9.39326 | 37945 ft | 466 kts | 359° |
| 2026-05-07 21:50 | 35.74031 | -9.38859 | 37944 ft | 467 kts | 359° |
| 2026-05-07 21:50 | 35.80501 | -9.38391 | 37950 ft | 466 kts | 359° |
| 2026-05-07 21:51 | 35.87001 | -9.37921 | 37942 ft | 467 kts | 359° |
| 2026-05-07 21:51 | 35.93494 | -9.37445 | 37942 ft | 467 kts | 359° |
| 2026-05-07 21:52 | 35.99912 | -9.36304 | 37941 ft | 470 kts | 7° |
| 2026-05-07 21:52 | 36.06405 | -9.35873 | 37940 ft | 466 kts | 357° |
| 2026-05-07 21:53 | 36.12887 | -9.35709 | 37938 ft | 466 kts | 358° |
| 2026-05-07 21:53 | 36.19376 | -9.35417 | 37938 ft | 466 kts | 359° |
| 2026-05-07 21:54 | 36.25816 | -9.35086 | 37938 ft | 466 kts | 359° |
| 2026-05-07 21:54 | 36.32307 | -9.34794 | 37937 ft | 465 kts | 359° |
| 2026-05-07 21:55 | 36.38765 | -9.34496 | 37938 ft | 465 kts | 359° |
| 2026-05-07 21:55 | 36.45246 | -9.34185 | 37935 ft | 466 kts | 359° |
| 2026-05-07 21:56 | 36.51686 | -9.33877 | 37937 ft | 464 kts | 359° |
| 2026-05-07 21:56 | 36.54896 | -9.33708 | 37698 ft | 460 kts | 359° |
| 2026-05-07 21:56 | 36.58122 | -9.33557 | 37438 ft | 463 kts | 359° |
| 2026-05-07 21:57 | 36.61353 | -9.33409 | 37183 ft | 463 kts | 359° |
| 2026-05-07 21:57 | 36.64527 | -9.33264 | 36940 ft | 463 kts | 359° |
| 2026-05-07 21:57 | 36.67750 | -9.33104 | 36692 ft | 463 kts | 359° |
| 2026-05-07 21:57 | 36.70981 | -9.32946 | 36443 ft | 463 kts | 359° |
| 2026-05-07 21:58 | 36.74214 | -9.32784 | 36196 ft | 464 kts | 359° |
| 2026-05-07 21:58 | 36.77438 | -9.32635 | 35803 ft | 464 kts | 360° |
| 2026-05-07 21:58 | 36.80679 | -9.32486 | 35160 ft | 465 kts | 360° |
| 2026-05-07 21:58 | 36.83922 | -9.32334 | 34436 ft | 467 kts | 360° |
| 2026-05-07 21:59 | 36.87145 | -9.32180 | 33705 ft | 470 kts | 360° |
| 2026-05-07 21:59 | 36.90436 | -9.32021 | 32962 ft | 472 kts | 360° |
| 2026-05-07 21:59 | 36.93726 | -9.31862 | 32223 ft | 474 kts | 360° |
| 2026-05-07 21:59 | 36.97032 | -9.31703 | 31446 ft | 476 kts | 0° |
| 2026-05-07 22:00 | 37.00356 | -9.31542 | 30712 ft | 477 kts | 0° |
| 2026-05-07 22:00 | 37.03675 | -9.31381 | 30030 ft | 476 kts | 0° |
| 2026-05-07 22:00 | 37.06979 | -9.31222 | 29339 ft | 475 kts | 0° |
| 2026-05-07 22:00 | 37.10276 | -9.31062 | 28654 ft | 473 kts | 0° |
| 2026-05-07 22:01 | 37.13521 | -9.30904 | 27987 ft | 472 kts | 0° |
| 2026-05-07 22:01 | 37.16800 | -9.30744 | 27333 ft | 469 kts | 0° |
| 2026-05-07 22:01 | 37.20061 | -9.30587 | 26643 ft | 468 kts | 0° |
| 2026-05-07 22:01 | 37.23310 | -9.30430 | 25970 ft | 465 kts | 0° |
| 2026-05-07 22:02 | 37.26533 | -9.30273 | 25310 ft | 460 kts | 0° |
| 2026-05-07 22:02 | 37.29714 | -9.30116 | 24669 ft | 455 kts | 0° |
| 2026-05-07 22:02 | 37.32862 | -9.29963 | 23999 ft | 450 kts | 0° |
| 2026-05-07 22:02 | 37.35977 | -9.29813 | 23340 ft | 445 kts | 0° |
| 2026-05-07 22:03 | 37.39049 | -9.29663 | 22707 ft | 439 kts | 0° |
| 2026-05-07 22:03 | 37.42090 | -9.29515 | 22060 ft | 435 kts | 0° |
| 2026-05-07 22:03 | 37.45099 | -9.29367 | 21413 ft | 431 kts | 0° |
| 2026-05-07 22:03 | 37.48044 | -9.29223 | 20782 ft | 427 kts | 0° |
| 2026-05-07 22:04 | 37.50998 | -9.29078 | 20169 ft | 422 kts | 1° |
| 2026-05-07 22:04 | 37.53923 | -9.28936 | 19582 ft | 417 kts | 1° |
| 2026-05-07 22:04 | 37.56813 | -9.28794 | 19010 ft | 412 kts | 1° |
| 2026-05-07 22:04 | 37.59666 | -9.28656 | 18478 ft | 406 kts | 1° |
| 2026-05-07 22:05 | 37.62469 | -9.28518 | 17945 ft | 401 kts | 1° |
| 2026-05-07 22:05 | 37.65241 | -9.28382 | 17420 ft | 396 kts | 1° |
| 2026-05-07 22:05 | 37.67986 | -9.28247 | 16892 ft | 394 kts | 1° |
| 2026-05-07 22:05 | 37.70732 | -9.28112 | 16367 ft | 395 kts | 1° |
| 2026-05-07 22:06 | 37.73491 | -9.27976 | 15842 ft | 396 kts | 1° |
| 2026-05-07 22:06 | 37.76223 | -9.27840 | 15336 ft | 397 kts | 1° |
| 2026-05-07 22:06 | 37.78990 | -9.27704 | 14821 ft | 398 kts | 1° |
| 2026-05-07 22:06 | 37.81750 | -9.27567 | 14296 ft | 393 kts | 2° |
| 2026-05-07 22:07 | 37.84464 | -9.27434 | 13769 ft | 387 kts | 2° |
| 2026-05-07 22:07 | 37.87128 | -9.27302 | 13277 ft | 380 kts | 2° |
| 2026-05-07 22:07 | 37.89738 | -9.27172 | 12805 ft | 372 kts | 2° |
| 2026-05-07 22:07 | 37.92310 | -9.27045 | 12338 ft | 367 kts | 2° |
| 2026-05-07 22:08 | 37.94844 | -9.26920 | 11849 ft | 361 kts | 2° |
| 2026-05-07 22:08 | 37.97348 | -9.26796 | 11379 ft | 356 kts | 2° |
| 2026-05-07 22:08 | 37.99772 | -9.26674 | 10960 ft | 351 kts | 2° |
| 2026-05-07 22:08 | 38.02180 | -9.26556 | 10698 ft | 340 kts | 2° |
| 2026-05-07 22:09 | 38.04502 | -9.26441 | 10506 ft | 329 kts | 2° |
| 2026-05-07 22:09 | 38.06751 | -9.26329 | 10344 ft | 317 kts | 2° |
| 2026-05-07 22:09 | 38.08907 | -9.26222 | 10196 ft | 305 kts | 2° |
| 2026-05-07 22:09 | 38.10988 | -9.26118 | 10061 ft | 293 kts | 2° |
| 2026-05-07 22:10 | 38.13003 | -9.26018 | 9837 ft | 286 kts | 2° |
| 2026-05-07 22:10 | 38.14981 | -9.25921 | 9483 ft | 283 kts | 2° |
| 2026-05-07 22:10 | 38.16943 | -9.25823 | 9101 ft | 282 kts | 2° |
| 2026-05-07 22:10 | 38.18905 | -9.25725 | 8723 ft | 281 kts | 2° |
| 2026-05-07 22:11 | 38.20857 | -9.25628 | 8357 ft | 280 kts | 2° |
| 2026-05-07 22:11 | 38.22795 | -9.25531 | 7993 ft | 278 kts | 2° |
| 2026-05-07 22:11 | 38.24726 | -9.25433 | 7625 ft | 277 kts | 2° |
| 2026-05-07 22:11 | 38.26645 | -9.25339 | 7265 ft | 275 kts | 2° |
| 2026-05-07 22:12 | 38.28555 | -9.25244 | 6948 ft | 272 kts | 2° |
| 2026-05-07 22:12 | 38.30412 | -9.25149 | 6634 ft | 269 kts | 1° |
| 2026-05-07 22:12 | 38.32272 | -9.25056 | 6291 ft | 266 kts | 1° |
| 2026-05-07 22:12 | 38.34120 | -9.24964 | 5934 ft | 265 kts | 1° |
| 2026-05-07 22:13 | 38.35967 | -9.24870 | 5580 ft | 263 kts | 2° |
| 2026-05-07 22:13 | 38.37775 | -9.24775 | 5232 ft | 262 kts | 1° |
| 2026-05-07 22:13 | 38.39594 | -9.24680 | 4884 ft | 261 kts | 2° |
| 2026-05-07 22:13 | 38.41403 | -9.24587 | 4552 ft | 259 kts | 1° |
| 2026-05-07 22:14 | 38.43209 | -9.24496 | 4192 ft | 258 kts | 1° |
| 2026-05-07 22:14 | 38.44981 | -9.24404 | 3991 ft | 250 kts | 1° |
| 2026-05-07 22:14 | 38.46663 | -9.24318 | 3956 ft | 235 kts | 1° |
| 2026-05-07 22:14 | 38.48291 | -9.24237 | 3958 ft | 233 kts | 1° |
| 2026-05-07 22:15 | 38.49906 | -9.24157 | 3974 ft | 232 kts | 1° |
| 2026-05-07 22:15 | 38.51507 | -9.24078 | 3986 ft | 233 kts | 1° |
| 2026-05-07 22:15 | 38.53118 | -9.23998 | 3993 ft | 227 kts | 1° |
| 2026-05-07 22:15 | 38.54640 | -9.23921 | 3985 ft | 213 kts | 1° |
| 2026-05-07 22:16 | 38.56058 | -9.23956 | 4026 ft | 193 kts | 357° |
| 2026-05-07 22:16 | 38.57366 | -9.23896 | 3999 ft | 182 kts | 5° |
| 2026-05-07 22:16 | 38.58604 | -9.23611 | 3965 ft | 181 kts | 12° |
| 2026-05-07 22:16 | 38.59790 | -9.23175 | 3823 ft | 172 kts | 17° |
| 2026-05-07 22:17 | 38.60908 | -9.22668 | 3627 ft | 169 kts | 19° |
| 2026-05-07 22:17 | 38.62006 | -9.22125 | 3423 ft | 169 kts | 20° |
| 2026-05-07 22:17 | 38.63092 | -9.21607 | 3204 ft | 168 kts | 21° |
| 2026-05-07 22:17 | 38.64176 | -9.21042 | 2984 ft | 168 kts | 21° |
| 2026-05-07 22:18 | 38.65252 | -9.20471 | 2761 ft | 167 kts | 21° |
| 2026-05-07 22:18 | 38.67397 | -9.19325 | 2319 ft | 166 kts | 21° |
| 2026-05-07 22:18 | 38.68458 | -9.18760 | 2100 ft | 165 kts | 21° |
| 2026-05-07 22:19 | 38.69517 | -9.18195 | 1934 ft | 165 kts | 21° |
| 2026-05-07 22:19 | 38.70556 | -9.17639 | 1711 ft | 158 kts | 21° |
| 2026-05-07 22:19 | 38.71485 | -9.17141 | 1462 ft | 136 kts | 21° |
| 2026-05-07 22:19 | 38.72352 | -9.16677 | 1279 ft | 134 kts | 21° |
| 2026-05-07 22:20 | 38.73205 | -9.16220 | 1104 ft | 134 kts | 21° |
| 2026-05-07 22:20 | 38.74073 | -9.15756 | 929 ft | 134 kts | 21° |
| 2026-05-07 22:20 | 38.74934 | -9.15295 | 750 ft | 133 kts | 22° |
| 2026-05-07 22:20 | 38.75788 | -9.14839 | 580 ft | 133 kts | 22° |
| 2026-05-07 22:21 | 38.76643 | -9.14380 | 388 ft | 133 kts | 22° |
| 2026-05-07 22:21 | 38.77392 | -9.13986 | 350 ft | 94 kts | 23° |
| 2026-05-07 22:21 | 38.77851 | -9.13742 | 350 ft | 56 kts | 24° |
| 2026-05-07 22:21 | 38.78173 | -9.13564 | 358 ft | 31 kts | 26° |
| 2026-05-07 22:22 | 38.78302 | -9.13461 | 359 ft | 22 kts | 35° |
| 2026-05-07 22:22 | 38.78380 | -9.13313 | 357 ft | 15 kts | 86° |
| 2026-05-07 22:22 | 38.78341 | -9.13264 | 356 ft | 0 kts | 198° |
| 2026-05-07 22:22 | 38.78335 | -9.13267 | 352 ft | 3 kts | 196° |
| 2026-05-07 22:23 | 38.78300 | -9.13280 | 359 ft | 7 kts | 196° |
| 2026-05-07 22:23 | 38.78243 | -9.13304 | 354 ft | 10 kts | 201° |
| 2026-05-07 22:23 | 38.78171 | -9.13339 | 352 ft | 12 kts | 201° |
| 2026-05-07 22:23 | 38.78084 | -9.13385 | 352 ft | 15 kts | 202° |
| 2026-05-07 22:24 | 38.77977 | -9.13404 | 357 ft | 17 kts | 172° |
| 2026-05-07 22:24 | 38.77853 | -9.13373 | 359 ft | 19 kts | 166° |
| 2026-05-07 22:24 | 38.77718 | -9.13335 | 352 ft | 21 kts | 169° |
| 2026-05-07 22:24 | 38.77568 | -9.13317 | 352 ft | 23 kts | 168° |
| 2026-05-07 22:25 | 38.77426 | -9.13278 | 352 ft | 11 kts | 169° |
| 2026-05-07 22:25 | 38.77417 | -9.13268 | 360 ft | 3 kts | 126° |
| 2026-05-07 22:25 | 38.77417 | -9.13226 | 357 ft | 6 kts | 86° |
| 2026-05-07 22:25 | 38.77424 | -9.13167 | 355 ft | 1 kts | 78° |
| 2026-05-07 22:26 | 38.77427 | -9.13151 | 357 ft | 0 kts | 77° |